Centerdale, Iowa
Current Conditions -  °F | °C
As of 1:52 PM on Tuesday 21 Oct 2014 (Local Time) from KIOW Reporting Station
Clear Clear  
Wind Chill: 59°   Ceiling: Unl
Heat Index: 59°   Visibility: 10mi
Dew Point: 42°   Wind: 9mph
Humidity: 53%   Direction: 30°NNE
Pressure: 30.18"   Gusts: NA
Location:  41.5542°N, 91.2913°W
Report Text: KIOW 211852Z AUTO 03008KT 10SM CLR 15/06 A3018 RMK AO2 SLP220 T01500056
Loading
Personal Weather Stations






























Interactive Weather Map
Tropical Storm Tracking
New forecast layout! Learn more

10-Day Weather Forecast

Advertisements
Track Severe Weather on mobile